WetterOnline ( https://www.wetteronline.ch )

Wetter aktuell Regen

Aktuelles Wetter: Zwiesel (613m)

6-stündlich | Neueste Meldungen
Ortszeit Temperatur Wetter
Mo, 23.11. 19:00 2.6° C bewölkt
Mo, 23.11. 13:00 3.1° C bedeckt
Mo, 23.11. 7:00 -0.1° C bedeckt
Mo, 23.11. 1:00 -0.1° C bewölkt
So, 22.11. 19:00 1.0° C bedeckt
So, 22.11. 13:00 4.2° C wolkig
So, 22.11. 7:00 -5.7° C wolkig
So, 22.11. 1:00 -5.0° C wolkenlos
Ortszeit Temperatur Wetter
Mo, 23.11. 20:00 1.8° C Nebel
Mo, 23.11. 19:50 1.8° C Nebel
Mo, 23.11. 19:40 2.0° C Nebel
Mo, 23.11. 19:30 2.4° C bedeckt
Mo, 23.11. 19:20 2.4° C bedeckt
Mo, 23.11. 19:10 2.5° C bedeckt
Mo, 23.11. 19:00 2.6° C bewölkt
Mo, 23.11. 18:30 2.7° C bewölkt
Mo, 23.11. 18:00 3.3° C bewölkt
Mo, 23.11. 17:30 3.3° C bedeckt
Mo, 23.11. 17:00 3.3° C bedeckt
Ortszeit Relative Feuchte Sichtweite
Mo, 23.11. 19:00 98% 2.1 km
Mo, 23.11. 13:00 95% 6 km
Mo, 23.11. 7:00 92% 2.9 km
Mo, 23.11. 1:00 88% 35 km
So, 22.11. 19:00 80% 35 km
So, 22.11. 13:00 61% 35 km
So, 22.11. 7:00 91% 65 km
So, 22.11. 1:00 93% 30 km
Ortszeit Relative Feuchte Sichtweite
Mo, 23.11. 20:00 98% 100 m
Mo, 23.11. 19:50 98% -
Mo, 23.11. 19:40 99% -
Mo, 23.11. 19:30 97% 1.9 km
Mo, 23.11. 19:20 97% -
Mo, 23.11. 19:10 98% -
Mo, 23.11. 19:00 98% 2.1 km
Mo, 23.11. 18:30 96% 3.6 km
Mo, 23.11. 18:00 97% 7 km
Mo, 23.11. 17:30 97% 6 km
Mo, 23.11. 17:00 97% 5.0 km
Ortszeit Niederschlagsmenge Niederschlagsart
Mo, 23.11. 19:00 0.9 l/m2 in 12 Std. Sprühregen, Niederschlag
Mo, 23.11. 13:00 0.9 l/m2 in 6 Std. Regen
Mo, 23.11. 7:00 0.1 l/m2 in 12 Std. -
Mo, 23.11. 1:00 0.1 l/m2 in 6 Std. Regen
So, 22.11. 19:00 0.0 l/m2 in 12 Std. -
So, 22.11. 13:00 0.0 l/m2 in 6 Std. -
So, 22.11. 7:00 0.0 l/m2 in 12 Std. -
So, 22.11. 1:00 0.0 l/m2 in 6 Std. -
Ortszeit Niederschlagsmenge Niederschlagsart
Mo, 23.11. 20:00 0.0 l/m2 in 1 Std. -
Mo, 23.11. 19:50 keine Meldung -
Mo, 23.11. 19:40 keine Meldung -
Mo, 23.11. 19:30 0.0 l/m2 in 1 Std. -
Mo, 23.11. 19:20 keine Meldung -
Mo, 23.11. 19:10 keine Meldung -
Mo, 23.11. 19:00 0.0 l/m2 in 1 Std. Sprühregen, Niederschlag
Mo, 23.11. 18:30 0.0 l/m2 in 1 Std. -
Mo, 23.11. 18:00 0.0 l/m2 in 1 Std. -
Mo, 23.11. 17:30 0.0 l/m2 in 1 Std. -
Mo, 23.11. 17:00 0.0 l/m2 in 1 Std. -
Ortszeit Stärke Spitze Richtung
km/h Bft. km/h Grad Sektor
Mo, 23.11. 19:00 4 1 11 120° SO
Mo, 23.11. 13:00 4 1 7 250° W
Mo, 23.11. 7:00 0 0 11 - -
Mo, 23.11. 1:00 4 1 11 220° SW
So, 22.11. 19:00 2 1 11 110° O
So, 22.11. 13:00 7 2 11 240° SW
So, 22.11. 7:00 0 0 7 - -
So, 22.11. 1:00 0 0 7 - -
Ortszeit Stärke Spitze Richtung
km/h Bft. km/h Grad Sektor
Mo, 23.11. 20:00 0 0 7 - -
Mo, 23.11. 19:50 0 0 - 40° NO
Mo, 23.11. 19:40 4 1 - 80° O
Mo, 23.11. 19:30 4 1 7 140° SO
Mo, 23.11. 19:20 4 1 - 140° SO
Mo, 23.11. 19:10 4 1 - 200° S
Mo, 23.11. 19:00 4 1 4 120° SO
Mo, 23.11. 18:30 2 1 6 130° SO
Mo, 23.11. 18:00 2 1 7 190° S
Mo, 23.11. 17:30 4 1 7 180° S
Mo, 23.11. 17:00 6 1 9 140° SO
Ortszeit Untergrenze Bedeckung Gattung
total tief tief mittel hoch
Mo, 23.11. 19:00 60 m 7/8 7/8 - - -
Mo, 23.11. 13:00 90 m 8/8 8/8 - - -
Mo, 23.11. 7:00 120 m 8/8 8/8 - - -
Mo, 23.11. 1:00 450 m 8/8 7/8 - - -
So, 22.11. 19:00 630 m 8/8 8/8 - - -
So, 22.11. 13:00 4200 m 8/8 8/8 - - -
So, 22.11. 7:00 6600 m 5/8 5/8 - - -
So, 22.11. 1:00 - 0/8 0/8 - - -
Ortszeit Bedeckungsgrad in Achtel und Wolkenuntergrenze
Mo, 23.11. 20:00 6(30m) 7(120m)
Mo, 23.11. 19:50 6(30m) 7(120m)
Mo, 23.11. 19:40 6(60m) 7(150m)
Mo, 23.11. 19:30 7(60m) 8(180m)
Mo, 23.11. 19:20 7(60m) 8(180m)
Mo, 23.11. 19:10 7(90m) 8(210m)
Mo, 23.11. 19:00 7(60m)
Mo, 23.11. 18:30 6(120m) 7(900m) 7(960m)
Mo, 23.11. 18:00 4(120m) 5(630m) 7(810m)
Mo, 23.11. 17:30 5(90m) 7(540m) 8(810m)
Mo, 23.11. 17:00 8(60m) 8(720m)
Ortszeit Luftdruck NN (hPa) Tendenz (hPa in 3 Std.)
Mo, 23.11. 19:00 1032 + 0,9
Mo, 23.11. 13:00 1030 0,0
Mo, 23.11. 7:00 1030 + 0,6
Mo, 23.11. 1:00 1030 - 0,4
So, 22.11. 19:00 1030 + 0,8
So, 22.11. 13:00 1029 - 1,6
So, 22.11. 7:00 1034 + 0,1
So, 22.11. 1:00 1035 - 0,8
Ortszeit Luftdruck NN (hPa) Tendenz (hPa in 3 Std.)
Mo, 23.11. 20:00 1032 + 0,6
Mo, 23.11. 19:50 1032 keine Meldung
Mo, 23.11. 19:40 1032 keine Meldung
Mo, 23.11. 19:30 1032 + 0,7
Mo, 23.11. 19:20 1032 keine Meldung
Mo, 23.11. 19:10 1032 keine Meldung
Mo, 23.11. 19:00 1032 + 0,9
Mo, 23.11. 18:30 1032 + 0,7
Mo, 23.11. 18:00 1031 + 0,8
Mo, 23.11. 17:30 1031 + 1,1
Mo, 23.11. 17:00 1031 + 1,1
Ortszeit Schneehöhe (cm)
Mo, 23.11. 19:00 0
Mo, 23.11. 13:00 0
Mo, 23.11. 7:00 0
Mo, 23.11. 1:00 0
So, 22.11. 19:00 0
So, 22.11. 13:00 0
So, 22.11. 7:00 0
So, 22.11. 1:00 0
Ortszeit Schneehöhe (cm)
Mo, 23.11. 20:00 0
Mo, 23.11. 19:50 0
Mo, 23.11. 19:40 0
Mo, 23.11. 19:30 0
Mo, 23.11. 19:20 0
Mo, 23.11. 19:10 0
Mo, 23.11. 19:00 0
Mo, 23.11. 18:30 0
Mo, 23.11. 18:00 0
Mo, 23.11. 17:30 0
Mo, 23.11. 17:00 0
Link zu dieser Seite / Seite empfehlen

Das Wetter in ...